F/V Renaissance II — FMEW — position and weather

sailwx.info

Track history (hours):
 
Tides and Currents Weather Stations Pressure Air Temp Water Temp Dewpoint Dewpoint Depression Visibility Wind Speed Wind Dir Waves Ship Positions

F/V Renaissance II

Last reported at 2014-Aug-22 06:30 UTC. Time now 2014-Aug-22 07:55 UTC.
Position N 46°28' W 002°14'.

Length 18 m.

Type: Fishing. MMSI: 228216600.

Date/timePositionNaut miles runAvg speedWind from/ knotsBaromVisibWave heightAir tempDewpointWater temp
2014-Aug-22 06:30N 46°28' W 002°14'910.1
2014-Aug-22 05:33N 46°28' W 002°01'9 9.0
2014-Aug-22 04:34N 46°29' W 001°48'0 0.4
2014-Aug-22 03:33N 46°30' W 001°48'0 0.0
2014-Aug-22 02:33N 46°30' W 001°48'0 0.0
2014-Aug-22 01:33N 46°30' W 001°48'0 0.0
2014-Aug-22 00:33N 46°30' W 001°48'0 0.0
2014-Aug-21 23:33N 46°30' W 001°48'0 0.0
2014-Aug-21 22:33N 46°30' W 001°48'0 0.0
2014-Aug-21 21:33N 46°30' W 001°48'0 0.1
2014-Aug-21 20:33N 46°30' W 001°47'4 3.6
2014-Aug-21 19:33N 46°27' W 001°50'2 1.8
2014-Aug-21 18:33N 46°27' W 001°52'3 2.6
2014-Aug-21 17:33N 46°24' W 001°51'7 7.2
2014-Aug-21 16:32N 46°18' W 001°45'2 1.6
2014-Aug-21 15:33N 46°17' W 001°43'1 0.9
2014-Aug-21 14:33N 46°17' W 001°44'0 0.5
2014-Aug-21 13:33N 46°17' W 001°44'1 1.3
2014-Aug-21 12:33N 46°18' W 001°45'1 1.0
2014-Aug-21 11:33N 46°17' W 001°44'1 1.1
2014-Aug-21 10:33N 46°18' W 001°45'1 0.8
2014-Aug-21 09:33N 46°19' W 001°44'1 0.5
2014-Aug-21 08:33N 46°18' W 001°44'0 0.3
2014-Aug-21 07:33N 46°19' W 001°45'1 0.5
2014-Aug-21 06:26N 46°18' W 001°45'1 1.6
2014-Aug-21 05:33N 46°17' W 001°44'6 5.9
2014-Aug-21 04:33N 46°23' W 001°46'7 7.1
2014-Aug-21 03:33N 46°30' W 001°47'0 0.0
2014-Aug-21 02:34N 46°30' W 001°47'0 0.0
2014-Aug-21 01:33N 46°30' W 001°47'0 0.0
2014-Aug-21 00:33N 46°30' W 001°47'0 0.0
2014-Aug-20 23:33N 46°30' W 001°47'0 0.0
2014-Aug-20 22:33N 46°30' W 001°47'0 0.0
2014-Aug-20 21:33N 46°30' W 001°47'0 0.0
2014-Aug-20 20:33N 46°30' W 001°47'0 0.2
2014-Aug-20 19:34N 46°30' W 001°47'3 3.5
2014-Aug-20 18:34N 46°26' W 001°46'5 5.4
2014-Aug-20 17:34N 46°21' W 001°45'1 0.8
2014-Aug-20 16:33N 46°20' W 001°45'2 1.7
2014-Aug-20 15:33N 46°19' W 001°45'1 0.6
2014-Aug-20 14:31N 46°18' W 001°45'1 0.8
2014-Aug-20 13:33N 46°18' W 001°44'1 1.1
2014-Aug-20 12:33N 46°19' W 001°43'1 0.8
2014-Aug-20 11:33N 46°18' W 001°44'1 0.8
2014-Aug-20 10:32N 46°19' W 001°45'1 0.5
2014-Aug-20 09:34N 46°19' W 001°45'1 1.4
2014-Aug-20 08:33N 46°18' W 001°44'2 1.9
2014-Aug-20 07:33N 46°20' W 001°45'0 0.2
2014-Aug-20 06:33N 46°20' W 001°44'1 0.8
2014-Aug-20 05:33N 46°19' W 001°43'4 3.5
2014-Aug-20 04:33N 46°23' W 001°45'5 5.2
2014-Aug-20 03:33N 46°28' W 001°47'2 2.0
2014-Aug-20 02:33N 46°30' W 001°48'0 0.0
2014-Aug-20 01:33N 46°30' W 001°48'0 0.0
2014-Aug-20 00:33N 46°30' W 001°48'0 0.0
2014-Aug-19 23:33N 46°30' W 001°48'0 0.0
2014-Aug-19 22:33N 46°30' W 001°48'0 0.0
2014-Aug-19 21:33N 46°30' W 001°48'0 0.0
2014-Aug-19 20:33N 46°30' W 001°48'0 0.0
2014-Aug-19 19:33N 46°30' W 001°48'0 0.2
2014-Aug-19 18:33N 46°30' W 001°47'6 5.5
2014-Aug-19 17:33N 46°25' W 001°45'7 7.5
2014-Aug-19 16:33N 46°17' W 001°42'11 2.7
2014-Aug-19 12:32N 46°07' W 001°37'1 0.3
2014-Aug-19 07:25N 46°07' W 001°39'1 1.5
2014-Aug-19 06:33N 46°08' W 001°40'22 1.4
2014-Aug-18 15:14N 46°30' W 001°48'0 0.0
2014-Aug-18 14:33N 46°30' W 001°48'0 0.0
2014-Aug-18 13:33N 46°30' W 001°48'0 0.0
2014-Aug-18 12:33N 46°30' W 001°48'0 0.0
2014-Aug-18 11:33N 46°30' W 001°48'0 0.0
2014-Aug-18 10:33N 46°30' W 001°48'0 0.0
2014-Aug-18 09:33N 46°30' W 001°48'0 0.0
2014-Aug-18 08:33N 46°30' W 001°48'0 0.0
2014-Aug-18 07:33N 46°30' W 001°48'0 0.2
2014-Aug-18 06:33N 46°30' W 001°47'0 0.0
2014-Aug-18 05:33N 46°30' W 001°47'0 0.0
2014-Aug-18 04:33N 46°30' W 001°47'0 0.0
2014-Aug-18 03:33N 46°30' W 001°47'0 0.0
2014-Aug-18 02:33N 46°30' W 001°47'0 0.0
2014-Aug-18 01:33N 46°30' W 001°47'0 0.0
2014-Aug-18 00:33N 46°30' W 001°47'19 1.6
2014-Aug-17 12:27N 46°12' W 001°57'1 1.4
2014-Aug-17 11:33N 46°12' W 001°55'2 1.3
2014-Aug-17 10:19N 46°12' W 001°58'3 2.3
2014-Aug-17 09:10N 46°15' W 001°56'3 3.4
2014-Aug-17 08:24N 46°16' W 001°53'1 1.3
2014-Aug-17 07:33N 46°17' W 001°51'2 1.7
2014-Aug-17 06:33N 46°18' W 001°50'4 3.5
2014-Aug-17 05:33N 46°22' W 001°50'8 8.2
2014-Aug-17 04:33N 46°30' W 001°48'0 0.4
2014-Aug-17 03:33N 46°30' W 001°47'0 0.0
2014-Aug-17 02:33N 46°30' W 001°47'0 0.0
2014-Aug-17 01:33N 46°30' W 001°47'0 0.0
2014-Aug-17 00:33N 46°30' W 001°47'2 1.9
2014-Aug-16 23:33N 46°28' W 001°49'9 8.6
2014-Aug-16 22:33N 46°28' W 002°01'9 0.4
2014-Aug-16 00:09N 46°22' W 002°11'3 5.2
2014-Aug-15 23:30N 46°21' W 002°07'5 5.1
2014-Aug-15 22:32N 46°19' W 002°00'5 4.8
2014-Aug-15 21:33N 46°17' W 001°54'4 3.8
2014-Aug-15 20:33N 46°15' W 001°49'4 1.9
2014-Aug-15 18:34N 46°15' W 001°44'1 0.9
2014-Aug-15 17:33N 46°16' W 001°45'1 1.0
2014-Aug-15 16:33N 46°16' W 001°44'2 1.6
2014-Aug-15 15:33N 46°17' W 001°46'2 2.4
2014-Aug-15 14:33N 46°19' W 001°46'1 1.0
2014-Aug-15 13:34N 46°20' W 001°46'2 1.7
2014-Aug-15 12:33N 46°21' W 001°48'1 1.1
2014-Aug-15 11:33N 46°21' W 001°47'0 0.2
2014-Aug-15 10:33N 46°21' W 001°47'1 0.9
2014-Aug-15 09:33N 46°21' W 001°47'0 0.4
2014-Aug-15 08:33N 46°22' W 001°47'1 1.0
2014-Aug-15 07:33N 46°23' W 001°47'6 5.7
2014-Aug-15 06:33N 46°28' W 001°47'1 1.4
2014-Aug-15 05:33N 46°30' W 001°48'0 0.0
2014-Aug-15 04:33N 46°30' W 001°48'0 0.0
2014-Aug-15 03:33N 46°30' W 001°48'0 0.0
2014-Aug-15 02:33N 46°30' W 001°48'0 0.0
2014-Aug-15 01:33N 46°30' W 001°48'0 0.0
2014-Aug-15 00:34N 46°30' W 001°48'0 0.0
2014-Aug-14 23:33N 46°30' W 001°48'0 0.0
2014-Aug-14 22:33N 46°30' W 001°48'0 0.0
2014-Aug-14 21:33N 46°30' W 001°48'0 0.0
2014-Aug-14 20:33N 46°30' W 001°48'0 0.0
2014-Aug-14 19:33N 46°30' W 001°48'0 0.0
2014-Aug-14 07:08N 46°30' W 001°48'0 0.0
2014-Aug-14 06:33N 46°30' W 001°48'0 0.2
2014-Aug-14 05:34N 46°30' W 001°47'0 0.0
2014-Aug-14 04:34N 46°30' W 001°47'0 0.0
2014-Aug-14 03:33N 46°30' W 001°47'0 0.1
2014-Aug-14 02:34N 46°30' W 001°47'2 2.3
2014-Aug-14 01:34N 46°28' W 001°46'1 1.1
2014-Aug-14 00:34N 46°28' W 001°47'3 2.7
2014-Aug-13 23:34N 46°27' W 001°50'3 2.7
2014-Aug-13 22:34N 46°25' W 001°53'2 2.3
2014-Aug-13 21:33N 46°23' W 001°55'1 1.0
2014-Aug-13 20:33N 46°23' W 001°57'13 0.9
2014-Aug-13 05:09N 46°24' W 002°16'6 8.5
2014-Aug-13 04:24N 46°26' W 002°07'7 8.6
2014-Aug-13 03:33N 46°27' W 001°57'7 7.0
2014-Aug-13 02:33N 46°30' W 001°47'0 0.4
2014-Aug-13 01:33N 46°30' W 001°48'2 2.1
2014-Aug-13 00:33N 46°28' W 001°49'3 3.1
2014-Aug-12 23:33N 46°27' W 001°53'6 5.9
2014-Aug-12 22:33N 46°26' W 002°02'  
Track history (hours):
 
Tides and Currents Weather Stations Pressure Air Temp Water Temp Dewpoint Dewpoint Depression Visibility Wind Speed Wind Dir Waves Ship Positions

F/V Renaissance II

Last reported at 2014-Aug-22 06:30 UTC. Time now 2014-Aug-22 07:55 UTC.
Position N 46°28' W 002°14'.

Length 18 m.

Type: Fishing. MMSI: 228216600.

Date/timePositionNaut miles runAvg speedWind from/ knotsBaromVisibWave heightAir tempDewpointWater temp
2014-Aug-22 06:30N 46°28' W 002°14'910.1
2014-Aug-22 05:33N 46°28' W 002°01'9 9.0
2014-Aug-22 04:34N 46°29' W 001°48'0 0.4
2014-Aug-22 03:33N 46°30' W 001°48'0 0.0
2014-Aug-22 02:33N 46°30' W 001°48'0 0.0
2014-Aug-22 01:33N 46°30' W 001°48'0 0.0
2014-Aug-22 00:33N 46°30' W 001°48'0 0.0
2014-Aug-21 23:33N 46°30' W 001°48'0 0.0
2014-Aug-21 22:33N 46°30' W 001°48'0 0.0
2014-Aug-21 21:33N 46°30' W 001°48'0 0.1
2014-Aug-21 20:33N 46°30' W 001°47'4 3.6
2014-Aug-21 19:33N 46°27' W 001°50'2 1.8
2014-Aug-21 18:33N 46°27' W 001°52'3 2.6
2014-Aug-21 17:33N 46°24' W 001°51'7 7.2
2014-Aug-21 16:32N 46°18' W 001°45'2 1.6
2014-Aug-21 15:33N 46°17' W 001°43'1 0.9
2014-Aug-21 14:33N 46°17' W 001°44'0 0.5
2014-Aug-21 13:33N 46°17' W 001°44'1 1.3
2014-Aug-21 12:33N 46°18' W 001°45'1 1.0
2014-Aug-21 11:33N 46°17' W 001°44'1 1.1
2014-Aug-21 10:33N 46°18' W 001°45'1 0.8
2014-Aug-21 09:33N 46°19' W 001°44'1 0.5
2014-Aug-21 08:33N 46°18' W 001°44'0 0.3
2014-Aug-21 07:33N 46°19' W 001°45'1 0.5
2014-Aug-21 06:26N 46°18' W 001°45'1 1.6
2014-Aug-21 05:33N 46°17' W 001°44'6 5.9
2014-Aug-21 04:33N 46°23' W 001°46'7 7.1
2014-Aug-21 03:33N 46°30' W 001°47'0 0.0
2014-Aug-21 02:34N 46°30' W 001°47'0 0.0
2014-Aug-21 01:33N 46°30' W 001°47'0 0.0
2014-Aug-21 00:33N 46°30' W 001°47'0 0.0
2014-Aug-20 23:33N 46°30' W 001°47'0 0.0
2014-Aug-20 22:33N 46°30' W 001°47'0 0.0
2014-Aug-20 21:33N 46°30' W 001°47'0 0.0
2014-Aug-20 20:33N 46°30' W 001°47'0 0.2
2014-Aug-20 19:34N 46°30' W 001°47'3 3.5
2014-Aug-20 18:34N 46°26' W 001°46'5 5.4
2014-Aug-20 17:34N 46°21' W 001°45'1 0.8
2014-Aug-20 16:33N 46°20' W 001°45'2 1.7
2014-Aug-20 15:33N 46°19' W 001°45'1 0.6
2014-Aug-20 14:31N 46°18' W 001°45'1 0.8
2014-Aug-20 13:33N 46°18' W 001°44'1 1.1
2014-Aug-20 12:33N 46°19' W 001°43'1 0.8
2014-Aug-20 11:33N 46°18' W 001°44'1 0.8
2014-Aug-20 10:32N 46°19' W 001°45'1 0.5
2014-Aug-20 09:34N 46°19' W 001°45'1 1.4
2014-Aug-20 08:33N 46°18' W 001°44'2 1.9
2014-Aug-20 07:33N 46°20' W 001°45'0 0.2
2014-Aug-20 06:33N 46°20' W 001°44'1 0.8
2014-Aug-20 05:33N 46°19' W 001°43'4 3.5
2014-Aug-20 04:33N 46°23' W 001°45'5 5.2
2014-Aug-20 03:33N 46°28' W 001°47'2 2.0
2014-Aug-20 02:33N 46°30' W 001°48'0 0.0
2014-Aug-20 01:33N 46°30' W 001°48'0 0.0
2014-Aug-20 00:33N 46°30' W 001°48'0 0.0
2014-Aug-19 23:33N 46°30' W 001°48'0 0.0
2014-Aug-19 22:33N 46°30' W 001°48'0 0.0
2014-Aug-19 21:33N 46°30' W 001°48'0 0.0
2014-Aug-19 20:33N 46°30' W 001°48'0 0.0
2014-Aug-19 19:33N 46°30' W 001°48'0 0.2
2014-Aug-19 18:33N 46°30' W 001°47'6 5.5
2014-Aug-19 17:33N 46°25' W 001°45'7 7.5
2014-Aug-19 16:33N 46°17' W 001°42'11 2.7
2014-Aug-19 12:32N 46°07' W 001°37'1 0.3
2014-Aug-19 07:25N 46°07' W 001°39'1 1.5
2014-Aug-19 06:33N 46°08' W 001°40'22 1.4
2014-Aug-18 15:14N 46°30' W 001°48'0 0.0
2014-Aug-18 14:33N 46°30' W 001°48'0 0.0
2014-Aug-18 13:33N 46°30' W 001°48'0 0.0
2014-Aug-18 12:33N 46°30' W 001°48'0 0.0
2014-Aug-18 11:33N 46°30' W 001°48'0 0.0
2014-Aug-18 10:33N 46°30' W 001°48'0 0.0
2014-Aug-18 09:33N 46°30' W 001°48'0 0.0
2014-Aug-18 08:33N 46°30' W 001°48'0 0.0
2014-Aug-18 07:33N 46°30' W 001°48'0 0.2
2014-Aug-18 06:33N 46°30' W 001°47'0 0.0
2014-Aug-18 05:33N 46°30' W 001°47'0 0.0
2014-Aug-18 04:33N 46°30' W 001°47'0 0.0
2014-Aug-18 03:33N 46°30' W 001°47'0 0.0
2014-Aug-18 02:33N 46°30' W 001°47'0 0.0
2014-Aug-18 01:33N 46°30' W 001°47'0 0.0
2014-Aug-18 00:33N 46°30' W 001°47'19 1.6
2014-Aug-17 12:27N 46°12' W 001°57'1 1.4
2014-Aug-17 11:33N 46°12' W 001°55'2 1.3
2014-Aug-17 10:19N 46°12' W 001°58'3 2.3
2014-Aug-17 09:10N 46°15' W 001°56'3 3.4
2014-Aug-17 08:24N 46°16' W 001°53'1 1.3
2014-Aug-17 07:33N 46°17' W 001°51'2 1.7
2014-Aug-17 06:33N 46°18' W 001°50'4 3.5
2014-Aug-17 05:33N 46°22' W 001°50'8 8.2
2014-Aug-17 04:33N 46°30' W 001°48'0 0.4
2014-Aug-17 03:33N 46°30' W 001°47'0 0.0
2014-Aug-17 02:33N 46°30' W 001°47'0 0.0
2014-Aug-17 01:33N 46°30' W 001°47'0 0.0
2014-Aug-17 00:33N 46°30' W 001°47'2 1.9
2014-Aug-16 23:33N 46°28' W 001°49'9 8.6
2014-Aug-16 22:33N 46°28' W 002°01'9 0.4
2014-Aug-16 00:09N 46°22' W 002°11'3 5.2
2014-Aug-15 23:30N 46°21' W 002°07'5 5.1
2014-Aug-15 22:32N 46°19' W 002°00'5 4.8
2014-Aug-15 21:33N 46°17' W 001°54'4 3.8
2014-Aug-15 20:33N 46°15' W 001°49'4 1.9
2014-Aug-15 18:34N 46°15' W 001°44'1 0.9
2014-Aug-15 17:33N 46°16' W 001°45'1 1.0
2014-Aug-15 16:33N 46°16' W 001°44'2 1.6
2014-Aug-15 15:33N 46°17' W 001°46'2 2.4
2014-Aug-15 14:33N 46°19' W 001°46'1 1.0
2014-Aug-15 13:34N 46°20' W 001°46'2 1.7
2014-Aug-15 12:33N 46°21' W 001°48'1 1.1
2014-Aug-15 11:33N 46°21' W 001°47'0 0.2
2014-Aug-15 10:33N 46°21' W 001°47'1 0.9
2014-Aug-15 09:33N 46°21' W 001°47'0 0.4
2014-Aug-15 08:33N 46°22' W 001°47'1 1.0
2014-Aug-15 07:33N 46°23' W 001°47'6 5.7
2014-Aug-15 06:33N 46°28' W 001°47'1 1.4
2014-Aug-15 05:33N 46°30' W 001°48'0 0.0
2014-Aug-15 04:33N 46°30' W 001°48'0 0.0
2014-Aug-15 03:33N 46°30' W 001°48'0 0.0
2014-Aug-15 02:33N 46°30' W 001°48'0 0.0
2014-Aug-15 01:33N 46°30' W 001°48'0 0.0
2014-Aug-15 00:34N 46°30' W 001°48'0 0.0
2014-Aug-14 23:33N 46°30' W 001°48'0 0.0
2014-Aug-14 22:33N 46°30' W 001°48'0 0.0
2014-Aug-14 21:33N 46°30' W 001°48'0 0.0
2014-Aug-14 20:33N 46°30' W 001°48'0 0.0
2014-Aug-14 19:33N 46°30' W 001°48'0 0.0
2014-Aug-14 07:08N 46°30' W 001°48'0 0.0
2014-Aug-14 06:33N 46°30' W 001°48'0 0.2
2014-Aug-14 05:34N 46°30' W 001°47'0 0.0
2014-Aug-14 04:34N 46°30' W 001°47'0 0.0
2014-Aug-14 03:33N 46°30' W 001°47'0 0.1
2014-Aug-14 02:34N 46°30' W 001°47'2 2.3
2014-Aug-14 01:34N 46°28' W 001°46'1 1.1
2014-Aug-14 00:34N 46°28' W 001°47'3 2.7
2014-Aug-13 23:34N 46°27' W 001°50'3 2.7
2014-Aug-13 22:34N 46°25' W 001°53'2 2.3
2014-Aug-13 21:33N 46°23' W 001°55'1 1.0
2014-Aug-13 20:33N 46°23' W 001°57'13 0.9
2014-Aug-13 05:09N 46°24' W 002°16'6 8.5
2014-Aug-13 04:24N 46°26' W 002°07'7 8.6
2014-Aug-13 03:33N 46°27' W 001°57'7 7.0
2014-Aug-13 02:33N 46°30' W 001°47'0 0.4
2014-Aug-13 01:33N 46°30' W 001°48'2 2.1
2014-Aug-13 00:33N 46°28' W 001°49'3 3.1
2014-Aug-12 23:33N 46°27' W 001°53'6 5.9
2014-Aug-12 22:33N 46°26' W 002°02'  

Dump ship's entire track history